createdAt,value
2022-11-08T00:01:09.554Z,100958.06
2022-11-08T00:03:36.077Z,100955.53
2022-11-08T00:06:21.345Z,100959.66
2022-11-08T00:09:06.486Z,100953.59
2022-11-08T00:11:51.380Z,100969.38
2022-11-08T00:14:18.032Z,100960.34
2022-11-08T00:16:44.573Z,100952.06
2022-11-08T00:19:11.041Z,100952.91
2022-11-08T00:21:37.519Z,100956.97
2022-11-08T00:24:04.168Z,100947.84
2022-11-08T00:26:30.699Z,100950.97
2022-11-08T00:28:58.717Z,100951.72
2022-11-08T00:31:28.123Z,100949.50
2022-11-08T00:33:55.641Z,100951.78
2022-11-08T00:36:22.170Z,100952.09
2022-11-08T00:38:51.833Z,100943.41
2022-11-08T00:41:18.340Z,100953.13
2022-11-08T00:43:44.836Z,100941.50
2022-11-08T00:46:11.375Z,100939.63
2022-11-08T00:48:38.228Z,100938.94
2022-11-08T00:51:07.122Z,100942.72
2022-11-08T00:53:36.335Z,100938.94
2022-11-08T00:56:05.500Z,100938.50
2022-11-08T00:58:32.274Z,100934.75
2022-11-08T01:00:59.537Z,100928.72
2022-11-08T01:03:26.941Z,100931.34
2022-11-08T01:06:05.382Z,100933.25
2022-11-08T01:08:32.367Z,100936.25
2022-11-08T01:11:03.422Z,100944.06
2022-11-08T01:13:30.302Z,100936.25
2022-11-08T01:15:57.029Z,100933.56
2022-11-08T01:18:23.692Z,100939.16
2022-11-08T01:20:50.889Z,100933.50
2022-11-08T01:23:20.332Z,100934.59
2022-11-08T01:25:48.103Z,100933.47
2022-11-08T01:28:14.895Z,100930.88
2022-11-08T01:30:43.453Z,100924.13
2022-11-08T01:33:10.306Z,100916.66
2022-11-08T01:35:37.738Z,100921.22
2022-11-08T01:38:06.292Z,100910.66
2022-11-08T01:40:33.346Z,100905.00
2022-11-08T01:42:59.919Z,100908.72
2022-11-08T01:46:13.800Z,100907.19
2022-11-08T01:48:46.319Z,100892.16
2022-11-08T01:51:17.553Z,100896.63
2022-11-08T01:53:44.825Z,100885.56
2022-11-08T01:56:13.686Z,100881.75
2022-11-08T01:58:42.687Z,100881.69
2022-11-08T02:01:12.962Z,100878.72
2022-11-08T02:03:41.593Z,100880.28
2022-11-08T02:06:08.551Z,100877.25
2022-11-08T02:08:39.537Z,100864.34
2022-11-08T02:11:07.713Z,100864.44
2022-11-08T02:13:36.138Z,100860.66
2022-11-08T02:16:02.731Z,100854.66
2022-11-08T02:18:32.349Z,100860.50
2022-11-08T02:21:07.576Z,100852.69
2022-11-08T02:23:43.354Z,100848.41
2022-11-08T02:26:09.901Z,100849.22
2022-11-08T02:28:40.590Z,100845.44
2022-11-08T02:31:11.239Z,100845.22
2022-11-08T02:33:38.676Z,100840.31
2022-11-08T02:36:06.965Z,100832.06
2022-11-08T02:38:38.850Z,100835.09
2022-11-08T02:41:05.476Z,100835.09
2022-11-08T02:43:32.271Z,100826.16
2022-11-08T02:45:59.680Z,100823.47
2022-11-08T02:48:27.029Z,100824.59
2022-11-08T02:50:59.649Z,100825.38
2022-11-08T02:53:26.135Z,100823.78
2022-11-08T02:55:52.699Z,100820.00
2022-11-08T02:58:19.553Z,100812.38
2022-11-08T03:00:46.264Z,100809.91
2022-11-08T03:03:12.827Z,100809.88
2022-11-08T03:05:40.971Z,100796.50
2022-11-08T03:08:07.479Z,100798.97
2022-11-08T03:10:34.131Z,100808.41
2022-11-08T03:13:02.726Z,100799.00
2022-11-08T03:15:30.320Z,100795.00
2022-11-08T03:17:58.135Z,100790.78
2022-11-08T03:20:29.575Z,100785.88
2022-11-08T03:23:01.551Z,100783.97
2022-11-08T03:25:28.172Z,100783.28
2022-11-08T03:27:55.385Z,100780.66
2022-11-08T03:30:22.425Z,100771.41
2022-11-08T03:32:50.054Z,100770.09
2022-11-08T03:35:17.066Z,100759.22
2022-11-08T03:37:53.749Z,100756.53
2022-11-08T03:40:21.297Z,100747.97
2022-11-08T03:42:47.978Z,100748.41
2022-11-08T03:45:15.330Z,100732.34
2022-11-08T03:47:48.483Z,100728.66
2022-11-08T03:50:16.332Z,100725.59
2022-11-08T03:52:53.939Z,100713.53
2022-11-08T03:55:23.194Z,100711.69
2022-11-08T03:57:50.852Z,100711.69
2022-11-08T04:00:20.650Z,100717.38
2022-11-08T04:02:50.820Z,100710.22
2022-11-08T04:05:17.497Z,100693.34
2022-11-08T04:07:44.097Z,100694.84
2022-11-08T04:10:12.297Z,100693.72
2022-11-08T04:12:59.400Z,100688.56
2022-11-08T04:15:27.352Z,100684.47
2022-11-08T04:18:14.688Z,100679.56
2022-11-08T04:21:01.709Z,100670.25
2022-11-08T04:23:29.805Z,100667.94
2022-11-08T04:25:58.566Z,100670.91
2022-11-08T04:28:30.760Z,100674.03
2022-11-08T04:30:59.812Z,100672.19
2022-11-08T04:33:26.745Z,100663.06
2022-11-08T04:35:58.562Z,100671.34
2022-11-08T04:38:25.063Z,100663.03
2022-11-08T04:40:51.525Z,100671.72
2022-11-08T04:43:18.009Z,100667.91
2022-11-08T04:45:44.498Z,100669.38
2022-11-08T04:48:10.978Z,100660.72
2022-11-08T04:50:37.530Z,100654.31
2022-11-08T04:53:04.545Z,100660.81
2022-11-08T04:55:31.077Z,100651.81
2022-11-08T04:57:59.007Z,100638.69
2022-11-08T05:00:26.391Z,100645.50
2022-11-08T05:02:53.008Z,100628.59
2022-11-08T05:05:19.692Z,100632.38
2022-11-08T05:07:46.226Z,100630.09
2022-11-08T05:10:13.049Z,100626.38
2022-11-08T05:12:39.604Z,100615.63
2022-11-08T05:15:06.899Z,100619.22
2022-11-08T05:17:33.408Z,100617.03
2022-11-08T05:20:18.593Z,100617.41
2022-11-08T05:23:08.186Z,100606.25
2022-11-08T05:25:42.008Z,100616.00
2022-11-08T05:28:12.517Z,100603.22
2022-11-08T05:30:38.980Z,100611.47
2022-11-08T05:33:05.467Z,100598.03
2022-11-08T05:35:33.913Z,100608.13
2022-11-08T05:38:00.552Z,100594.97
2022-11-08T05:40:30.700Z,100594.97
2022-11-08T05:42:59.924Z,100596.53
2022-11-08T05:45:26.878Z,100588.47
2022-11-08T05:48:03.747Z,100597.59
2022-11-08T05:50:32.749Z,100591.63
2022-11-08T05:52:59.493Z,100593.84
2022-11-08T05:55:26.585Z,100583.75
2022-11-08T05:57:56.127Z,100588.97
2022-11-08T06:00:22.835Z,100574.84
2022-11-08T06:02:49.373Z,100573.97
2022-11-08T06:05:15.869Z,100577.41
2022-11-08T06:07:42.411Z,100575.59
2022-11-08T06:10:09.286Z,100575.16
2022-11-08T06:12:35.864Z,100580.78
2022-11-08T06:15:02.556Z,100576.66
2022-11-08T06:17:30.218Z,100584.50
2022-11-08T06:19:57.021Z,100583.31
2022-11-08T06:22:23.540Z,100585.59
2022-11-08T06:24:50.066Z,100579.53
2022-11-08T06:27:16.784Z,100573.97
2022-11-08T06:29:43.392Z,100564.56
2022-11-08T06:32:10.788Z,100560.81
2022-11-08T06:34:37.757Z,100574.03
2022-11-08T06:37:05.160Z,100580.59
2022-11-08T06:39:33.071Z,100572.06
2022-11-08T06:42:01.186Z,100564.88
2022-11-08T06:44:27.703Z,100564.16
2022-11-08T06:46:55.862Z,100566.41
2022-11-08T06:49:25.930Z,100569.06
2022-11-08T06:51:52.918Z,100552.56
2022-11-08T06:54:23.190Z,100558.59
2022-11-08T06:56:55.642Z,100566.50
2022-11-08T06:59:23.286Z,100578.84
2022-11-08T07:01:50.042Z,100574.31
2022-11-08T07:04:16.694Z,100570.16
2022-11-08T07:06:43.254Z,100576.16
2022-11-08T07:09:09.852Z,100570.16
2022-11-08T07:11:36.527Z,100577.28
2022-11-08T07:14:02.975Z,100572.06
2022-11-08T07:16:29.707Z,100568.69
2022-11-08T07:18:56.419Z,100572.06
2022-11-08T07:21:23.529Z,100570.94
2022-11-08T07:23:50.036Z,100560.47
2022-11-08T07:26:16.564Z,100557.09
2022-11-08T07:28:43.063Z,100562.34
2022-11-08T07:31:11.007Z,100555.97
2022-11-08T07:33:37.516Z,100542.47
2022-11-08T07:36:04.450Z,100545.53
2022-11-08T07:38:31.264Z,100542.91
2022-11-08T07:41:04.676Z,100544.03
2022-11-08T07:43:31.396Z,100537.28
2022-11-08T07:46:00.887Z,100528.28
2022-11-08T07:48:29.109Z,100516.31
2022-11-08T07:50:56.029Z,100517.44
2022-11-08T07:53:22.953Z,100524.56
2022-11-08T07:55:49.535Z,100528.28
2022-11-08T07:58:17.190Z,100529.78
2022-11-08T08:00:45.093Z,100534.66
2022-11-08T08:03:14.239Z,100536.16
2022-11-08T08:05:43.422Z,100528.28
2022-11-08T08:08:12.475Z,100542.91
2022-11-08T08:10:39.932Z,100536.91
2022-11-08T08:13:06.566Z,100551.88
2022-11-08T08:15:33.108Z,100557.13
2022-11-08T08:18:01.710Z,100544.75
2022-11-08T08:20:29.202Z,100552.25
2022-11-08T08:22:55.707Z,100555.25
2022-11-08T08:25:22.360Z,100556.38
2022-11-08T08:27:54.284Z,100545.91
2022-11-08T08:30:21.098Z,100553.78
2022-11-08T08:33:08.200Z,100554.88
2022-11-08T08:35:38.486Z,100556.75
2022-11-08T08:38:06.703Z,100568.75
2022-11-08T08:40:33.819Z,100557.88
2022-11-08T08:43:03.365Z,100578.16
2022-11-08T08:45:31.370Z,100562.00
2022-11-08T08:47:58.624Z,100559.38
2022-11-08T08:50:27.149Z,100551.91
2022-11-08T08:53:01.187Z,100539.50
2022-11-08T08:55:28.064Z,100535.78
2022-11-08T08:57:54.810Z,100527.53
2022-11-08T09:03:10.369Z,100543.25
2022-11-08T09:05:37.351Z,100531.28
2022-11-08T09:08:04.184Z,100532.41
2022-11-08T09:10:30.876Z,100540.63
2022-11-08T09:12:57.353Z,100531.28
2022-11-08T09:15:23.977Z,100538.03
2022-11-08T09:17:59.442Z,100526.06
2022-11-08T09:20:26.128Z,100534.28
2022-11-08T09:22:52.793Z,100529.78
2022-11-08T09:25:19.351Z,100529.03
2022-11-08T09:27:45.989Z,100516.25
2022-11-08T09:30:12.730Z,100517.00
2022-11-08T09:35:28.254Z,100525.28
2022-11-08T09:37:55.188Z,100522.66
2022-11-08T09:40:27.654Z,100523.78
2022-11-08T09:42:57.135Z,100523.75
2022-11-08T09:45:46.548Z,100542.88
2022-11-08T09:48:25.357Z,100552.25
2022-11-08T09:50:54.474Z,100553.34
2022-11-08T09:53:45.243Z,100545.50
2022-11-08T09:56:30.876Z,100534.66
2022-11-08T09:59:43.218Z,100538.03
2022-11-08T10:02:18.183Z,100533.13
2022-11-08T10:04:50.048Z,100515.09
2022-11-08T10:07:28.720Z,100513.22
2022-11-08T10:10:17.102Z,100520.75
2022-11-08T10:12:55.715Z,100513.25
2022-11-08T10:15:31.374Z,100523.38
2022-11-08T10:18:15.002Z,100527.09
2022-11-08T10:21:11.187Z,100511.00
2022-11-08T10:23:44.698Z,100531.59
2022-11-08T10:26:24.170Z,100535.72
2022-11-08T10:29:01.951Z,100524.09
2022-11-08T10:31:33.602Z,100544.72
2022-11-08T10:34:02.218Z,100538.34
2022-11-08T10:36:38.272Z,100535.38
2022-11-08T10:39:08.851Z,100533.44
2022-11-08T10:41:43.285Z,100540.97
2022-11-08T10:44:16.419Z,100540.59
2022-11-08T10:46:56.714Z,100530.44
2022-11-08T10:49:58.272Z,100536.47
2022-11-08T10:52:42.408Z,100529.72
2022-11-08T10:55:23.950Z,100517.72
2022-11-08T10:57:50.402Z,100525.56
2022-11-08T11:00:19.865Z,100516.97
2022-11-08T11:02:54.622Z,100513.19
2022-11-08T11:05:28.193Z,100513.94
2022-11-08T11:08:24.935Z,100523.69
2022-11-08T11:10:51.579Z,100508.69
2022-11-08T11:15:57.424Z,100503.44
2022-11-08T11:18:36.977Z,100494.44
2022-11-08T11:21:08.797Z,100494.78
2022-11-08T11:23:53.785Z,100500.06
2022-11-08T11:26:27.833Z,100496.72
2022-11-08T11:29:09.312Z,100483.59
2022-11-08T11:31:41.843Z,100486.19
2022-11-08T11:34:17.435Z,100479.44
2022-11-08T11:36:47.735Z,100485.47
2022-11-08T11:39:23.027Z,100491.44
2022-11-08T11:42:30.968Z,100486.16
2022-11-08T11:45:22.712Z,100477.16
2022-11-08T11:47:55.825Z,100486.16
2022-11-08T11:50:35.051Z,100487.66
2022-11-08T11:53:06.252Z,100479.41
2022-11-08T11:55:54.278Z,100486.50
2022-11-08T11:58:57.340Z,100477.84
2022-11-08T12:01:58.032Z,100486.06
2022-11-08T12:04:43.619Z,100475.94
2022-11-08T12:07:21.934Z,100466.16
2022-11-08T12:10:18.212Z,100471.38
2022-11-08T12:13:03.879Z,100474.00
2022-11-08T12:15:54.336Z,100470.25
2022-11-08T12:18:43.944Z,100467.63
2022-11-08T12:21:15.308Z,100470.63
2022-11-08T12:23:54.256Z,100471.31
2022-11-08T12:26:27.344Z,100471.00
2022-11-08T12:28:56.858Z,100472.44
2022-11-08T12:31:35.672Z,100464.59
2022-11-08T12:35:13.161Z,100469.88
2022-11-08T12:38:13.596Z,100467.19
2022-11-08T12:41:12.089Z,100475.47
2022-11-08T12:44:18.647Z,100475.50
2022-11-08T12:47:04.294Z,100471.75
2022-11-08T12:49:43.086Z,100470.63
2022-11-08T12:52:27.139Z,100465.75
2022-11-08T12:55:05.020Z,100470.94
2022-11-08T12:57:32.233Z,100474.72
2022-11-08T13:00:06.630Z,100455.56
2022-11-08T13:02:39.105Z,100456.69
2022-11-08T13:05:18.850Z,100453.31
2022-11-08T13:08:11.667Z,100471.31
2022-11-08T13:10:56.392Z,100461.56
2022-11-08T13:13:44.473Z,100448.06
2022-11-08T13:16:15.434Z,100465.75
2022-11-08T13:18:50.886Z,100467.19
2022-11-08T13:21:38.209Z,100456.38
2022-11-08T13:24:14.062Z,100463.50
2022-11-08T13:26:53.742Z,100469.47
2022-11-08T13:29:25.763Z,100458.91
2022-11-08T13:32:03.107Z,100454.44
2022-11-08T13:34:29.820Z,100462.72
2022-11-08T13:36:59.374Z,100453.69
2022-11-08T13:40:04.987Z,100453.34
2022-11-08T13:42:39.812Z,100446.97
2022-11-08T13:45:24.170Z,100447.69
2022-11-08T13:47:54.342Z,100447.25
2022-11-08T13:50:31.407Z,100438.28
2022-11-08T13:53:20.781Z,100447.66
2022-11-08T13:55:49.024Z,100447.66
2022-11-08T13:58:38.794Z,100451.38
2022-11-08T14:01:38.462Z,100448.75
2022-11-08T14:04:33.751Z,100449.13
2022-11-08T14:07:26.617Z,100449.91
2022-11-08T14:10:01.332Z,100453.69
2022-11-08T14:12:33.865Z,100455.94
2022-11-08T14:15:10.371Z,100449.97
2022-11-08T14:17:44.845Z,100461.22
2022-11-08T14:20:22.829Z,100454.50
2022-11-08T14:22:50.547Z,100455.25
2022-11-08T14:25:35.415Z,100442.81
2022-11-08T14:28:02.959Z,100444.72
2022-11-08T14:30:29.492Z,100432.31
2022-11-08T14:33:26.657Z,100438.72
2022-11-08T14:36:03.341Z,100438.34
2022-11-08T14:38:32.817Z,100428.22
2022-11-08T14:41:02.839Z,100428.97
2022-11-08T14:43:30.088Z,100443.19
2022-11-08T14:46:00.186Z,100433.47
2022-11-08T14:48:30.815Z,100437.56
2022-11-08T14:51:05.713Z,100451.50
2022-11-08T14:53:34.534Z,100432.34
2022-11-08T14:56:19.800Z,100429.72
2022-11-08T14:58:51.153Z,100434.59
2022-11-08T15:01:22.946Z,100429.78
2022-11-08T15:04:02.254Z,100432.78
2022-11-08T15:06:43.911Z,100440.66
2022-11-08T15:09:36.907Z,100444.03
2022-11-08T15:12:06.705Z,100439.53
2022-11-08T15:14:36.613Z,100447.03
2022-11-08T15:17:03.734Z,100446.28
2022-11-08T15:19:35.832Z,100447.03
2022-11-08T15:22:26.847Z,100443.66
2022-11-08T15:25:19.127Z,100429.03
2022-11-08T15:27:46.568Z,100432.00
2022-11-08T15:30:21.223Z,100433.09
2022-11-08T15:32:48.925Z,100440.97
2022-11-08T15:35:20.896Z,100431.66
2022-11-08T15:37:49.254Z,100428.22
2022-11-08T15:40:20.851Z,100416.22
2022-11-08T15:42:50.512Z,100412.88
2022-11-08T15:45:16.939Z,100416.22
2022-11-08T15:47:43.378Z,100417.72
2022-11-08T15:50:17.037Z,100411.03
2022-11-08T15:52:44.882Z,100406.91
2022-11-08T15:55:17.205Z,100409.94
2022-11-08T15:57:45.488Z,100416.00
2022-11-08T16:00:22.360Z,100412.66
2022-11-08T16:02:52.959Z,100412.94
2022-11-08T16:05:21.784Z,100408.03
2022-11-08T16:07:51.529Z,100414.03
2022-11-08T16:10:31.602Z,100406.19
2022-11-08T16:13:01.054Z,100415.94
2022-11-08T16:15:33.838Z,100421.97
2022-11-08T16:18:01.963Z,100415.63
2022-11-08T16:20:33.389Z,100410.78
2022-11-08T16:23:02.406Z,100425.41
2022-11-08T16:25:33.325Z,100421.66
2022-11-08T16:28:08.731Z,100418.25
2022-11-08T16:30:35.733Z,100429.50
2022-11-08T16:33:16.295Z,100429.88
2022-11-08T16:35:42.852Z,100429.50
2022-11-08T16:38:10.775Z,100425.41
2022-11-08T16:40:37.269Z,100428.06
2022-11-08T16:43:03.931Z,100422.78
2022-11-08T16:46:03.061Z,100414.94
2022-11-08T16:48:24.365Z,100418.66
2022-11-08T16:50:51.474Z,100420.56
2022-11-08T16:53:21.962Z,100420.94
2022-11-08T16:55:51.604Z,100423.91
2022-11-08T16:58:18.485Z,100431.06
2022-11-08T17:00:45.866Z,100429.56
2022-11-08T17:03:24.346Z,100417.94
2022-11-08T17:05:53.936Z,100418.31
2022-11-08T17:08:21.298Z,100410.06
2022-11-08T17:10:48.143Z,100415.31
2022-11-08T17:13:16.335Z,100409.28
2022-11-08T17:15:43.805Z,100408.56
2022-11-08T17:18:12.510Z,100415.69
2022-11-08T17:20:45.686Z,100414.50
2022-11-08T17:23:14.578Z,100407.44
2022-11-08T17:25:47.846Z,100400.63
2022-11-08T17:28:14.399Z,100402.50
2022-11-08T17:30:44.328Z,100407.41
2022-11-08T17:33:12.843Z,100396.91
2022-11-08T17:35:42.791Z,100404.41
2022-11-08T17:38:10.988Z,100406.66
2022-11-08T17:40:37.474Z,100399.94
2022-11-08T17:43:03.953Z,100413.06
2022-11-08T17:45:30.749Z,100410.78
2022-11-08T17:47:57.269Z,100409.66
2022-11-08T17:50:23.795Z,100396.13
2022-11-08T17:52:56.414Z,100398.00
2022-11-08T17:55:22.897Z,100408.91
2022-11-08T17:57:49.377Z,100413.38
2022-11-08T18:00:16.594Z,100415.63
2022-11-08T18:02:43.438Z,100419.38
2022-11-08T18:05:10.193Z,100424.28
2022-11-08T18:07:39.175Z,100420.16
2022-11-08T18:10:07.227Z,100425.84
2022-11-08T18:12:34.176Z,100425.38
2022-11-08T18:15:03.496Z,100426.53
2022-11-08T18:17:30.736Z,100424.97
2022-11-08T18:19:57.459Z,100425.72
2022-11-08T18:22:24.200Z,100428.72
2022-11-08T18:24:50.800Z,100427.63
2022-11-08T18:27:20.558Z,100436.69
2022-11-08T18:29:48.455Z,100428.47
2022-11-08T18:32:15.077Z,100423.19
2022-11-08T18:34:41.701Z,100427.69
2022-11-08T18:37:08.353Z,100429.19
2022-11-08T18:39:34.912Z,100438.56
2022-11-08T18:42:03.281Z,100439.72
2022-11-08T18:44:30.402Z,100438.94
2022-11-08T18:46:58.697Z,100434.44
2022-11-08T18:49:25.405Z,100429.94
2022-11-08T18:51:54.858Z,100436.31
2022-11-08T18:54:22.778Z,100435.56
2022-11-08T18:56:49.325Z,100432.97
2022-11-08T18:59:15.963Z,100440.09
2022-11-08T19:01:43.676Z,100441.56
2022-11-08T19:04:10.240Z,100440.81
2022-11-08T19:06:37.090Z,100447.97
2022-11-08T19:09:05.260Z,100441.59
2022-11-08T19:11:33.883Z,100436.38
2022-11-08T19:14:02.019Z,100435.22
2022-11-08T19:16:28.598Z,100434.50
2022-11-08T19:18:57.126Z,100431.47
2022-11-08T19:21:27.094Z,100422.13
2022-11-08T19:23:59.017Z,100427.00
2022-11-08T19:26:27.248Z,100426.25
2022-11-08T19:29:01.555Z,100432.59
2022-11-08T19:31:28.160Z,100435.28
2022-11-08T19:33:55.520Z,100430.41
2022-11-08T19:36:27.307Z,100428.91
2022-11-08T19:38:58.183Z,100431.53
2022-11-08T19:41:27.130Z,100425.88
2022-11-08T19:43:57.109Z,100440.53
2022-11-08T19:46:26.982Z,100440.53
2022-11-08T19:49:02.707Z,100430.41
2022-11-08T19:51:31.124Z,100433.06
2022-11-08T19:53:59.641Z,100435.28
2022-11-08T19:56:50.040Z,100431.94
2022-11-08T19:59:14.826Z,100430.06
2022-11-08T20:01:43.705Z,100424.78
2022-11-08T20:04:11.551Z,100434.94
2022-11-08T20:06:38.740Z,100438.25
2022-11-08T20:09:06.460Z,100433.41
2022-11-08T20:11:36.858Z,100436.38
2022-11-08T20:14:05.142Z,100441.97
2022-11-08T20:16:38.100Z,100435.25
2022-11-08T20:19:13.444Z,100440.47
2022-11-08T20:21:42.173Z,100442.44
2022-11-08T20:24:10.815Z,100442.84
2022-11-08T20:26:41.266Z,100449.59
2022-11-08T20:29:08.653Z,100449.56
2022-11-08T20:31:35.551Z,100458.22
2022-11-08T20:34:05.902Z,100461.59
2022-11-08T20:36:35.409Z,100453.31
2022-11-08T20:39:06.797Z,100458.63
2022-11-08T20:41:35.787Z,100461.97
2022-11-08T20:44:03.278Z,100460.06
2022-11-08T20:46:30.146Z,100450.69
2022-11-08T20:49:00.643Z,100460.84
2022-11-08T20:51:28.852Z,100466.44
2022-11-08T20:53:56.763Z,100458.94
2022-11-08T20:56:25.600Z,100463.06
2022-11-08T20:58:56.106Z,100472.47
2022-11-08T21:01:25.850Z,100468.34
2022-11-08T21:03:52.879Z,100460.47
2022-11-08T21:06:25.239Z,100466.06
2022-11-08T21:08:59.846Z,100460.81
2022-11-08T21:11:32.377Z,100469.44
2022-11-08T21:13:58.954Z,100462.31
2022-11-08T21:16:38.146Z,100467.59
2022-11-08T21:19:09.133Z,100472.81
2022-11-08T21:21:35.773Z,100470.22
2022-11-08T21:24:02.311Z,100470.56
2022-11-08T21:26:28.852Z,100476.56
2022-11-08T21:28:55.482Z,100474.69
2022-11-08T21:31:22.030Z,100475.09
2022-11-08T21:33:54.853Z,100469.06
2022-11-08T21:36:23.275Z,100463.88
2022-11-08T21:38:49.751Z,100466.09
2022-11-08T21:41:16.268Z,100468.31
2022-11-08T21:43:44.186Z,100470.56
2022-11-08T21:46:25.481Z,100475.81
2022-11-08T21:48:57.254Z,100470.59
2022-11-08T21:51:24.269Z,100484.09
2022-11-08T21:53:55.865Z,100493.81
2022-11-08T21:56:29.583Z,100488.19
2022-11-08T21:58:56.312Z,100497.56
2022-11-08T22:01:28.588Z,100494.53
2022-11-08T22:03:57.159Z,100496.41
